createdAt,value
2018-01-21T00:01:58.866Z,41.87
2018-01-21T00:04:24.646Z,40.00
2018-01-21T00:06:50.395Z,40.03
2018-01-21T00:09:16.157Z,40.93
2018-01-21T00:11:41.886Z,37.90
2018-01-21T00:14:07.639Z,38.63
2018-01-21T00:16:33.405Z,40.77
2018-01-21T00:18:59.150Z,38.03
2018-01-21T00:21:24.935Z,38.67
2018-01-21T00:23:50.667Z,40.00
2018-01-21T00:26:16.413Z,39.90
2018-01-21T00:28:42.151Z,39.83
2018-01-21T00:31:07.886Z,37.47
2018-01-21T00:33:33.627Z,39.03
2018-01-21T00:35:59.379Z,39.50
2018-01-21T00:38:25.118Z,39.07
2018-01-21T00:40:50.870Z,46.10
2018-01-21T00:43:16.614Z,39.97
2018-01-21T00:45:42.367Z,38.70
2018-01-21T00:48:08.117Z,39.50
2018-01-21T00:50:33.874Z,38.10
2018-01-21T00:52:59.635Z,40.93
2018-01-21T00:55:25.378Z,40.10
2018-01-21T00:57:51.146Z,38.97
2018-01-21T01:00:16.898Z,39.80
2018-01-21T01:02:42.635Z,39.63
2018-01-21T01:05:08.410Z,41.33
2018-01-21T01:07:34.154Z,39.47
2018-01-21T01:09:59.890Z,37.80
2018-01-21T01:12:25.631Z,38.50
2018-01-21T01:14:51.366Z,38.67
2018-01-21T01:17:17.110Z,38.77
2018-01-21T01:19:42.852Z,42.90
2018-01-21T01:22:08.607Z,39.53
2018-01-21T01:24:34.334Z,39.90
2018-01-21T01:27:00.086Z,42.87
2018-01-21T01:29:25.819Z,45.10
2018-01-21T01:31:51.551Z,38.43
2018-01-21T01:34:17.291Z,36.73
2018-01-21T01:36:43.036Z,38.53
2018-01-21T01:39:08.795Z,41.17
2018-01-21T01:41:34.568Z,43.03
2018-01-21T01:44:00.310Z,45.83
2018-01-21T01:46:26.038Z,48.77
2018-01-21T01:48:53.594Z,44.23
2018-01-21T01:51:19.326Z,43.33
2018-01-21T01:53:45.090Z,40.77
2018-01-21T01:56:10.823Z,42.63
2018-01-21T01:58:36.576Z,45.70
2018-01-21T02:01:02.319Z,42.40
2018-01-21T02:03:28.067Z,41.20
2018-01-21T02:05:53.807Z,40.50
2018-01-21T02:08:19.563Z,42.97
2018-01-21T02:10:45.301Z,39.43
2018-01-21T02:13:11.059Z,38.17
2018-01-21T02:15:36.814Z,39.10
2018-01-21T02:18:02.625Z,37.07
2018-01-21T02:20:28.326Z,39.40
2018-01-21T02:22:54.054Z,36.67
2018-01-21T02:25:19.805Z,38.57
2018-01-21T02:27:45.550Z,40.20
2018-01-21T02:30:11.301Z,36.70
2018-01-21T02:32:37.059Z,38.70
2018-01-21T02:35:02.810Z,37.47
2018-01-21T02:37:28.550Z,37.70
2018-01-21T02:39:54.311Z,39.17
2018-01-21T02:42:20.046Z,40.10
2018-01-21T02:44:45.812Z,40.07
2018-01-21T02:47:11.562Z,38.90
2018-01-21T02:49:37.319Z,40.47
2018-01-21T02:52:03.060Z,36.00
2018-01-21T02:54:28.810Z,37.40
2018-01-21T02:56:54.546Z,39.73
2018-01-21T02:59:20.280Z,39.07
2018-01-21T03:01:46.039Z,40.43
2018-01-21T03:04:11.773Z,39.10
2018-01-21T03:06:37.518Z,37.20
2018-01-21T03:09:03.274Z,38.07
2018-01-21T03:11:29.032Z,34.83
2018-01-21T03:13:54.755Z,34.23
2018-01-21T03:16:20.514Z,36.77
2018-01-21T03:18:46.259Z,37.10
2018-01-21T03:21:12.012Z,38.30
2018-01-21T03:23:37.754Z,40.30
2018-01-21T03:26:03.514Z,41.57
2018-01-21T03:28:29.250Z,38.67
2018-01-21T03:30:54.986Z,37.87
2018-01-21T03:33:20.714Z,35.23
2018-01-21T03:35:46.467Z,35.07
2018-01-21T03:38:12.190Z,37.77
2018-01-21T03:40:37.939Z,35.50
2018-01-21T03:43:03.679Z,35.77
2018-01-21T03:45:29.418Z,35.20
2018-01-21T03:47:55.181Z,40.47
2018-01-21T03:50:20.954Z,42.73
2018-01-21T03:52:46.706Z,40.43
2018-01-21T03:55:12.466Z,34.33
2018-01-21T03:57:38.214Z,35.00
2018-01-21T04:00:03.954Z,37.80
2018-01-21T04:02:29.697Z,40.13
2018-01-21T04:04:55.438Z,38.47
2018-01-21T04:07:21.187Z,41.17
2018-01-21T04:09:46.918Z,39.70
2018-01-21T04:12:13.566Z,36.40
2018-01-21T04:14:39.302Z,36.85
2018-01-21T04:17:05.051Z,36.07
2018-01-21T04:19:30.773Z,42.73
2018-01-21T04:21:56.531Z,43.27
2018-01-21T04:24:22.283Z,40.50
2018-01-21T04:26:49.705Z,35.77
2018-01-21T04:29:15.458Z,35.90
2018-01-21T04:31:41.215Z,36.97
2018-01-21T04:34:06.960Z,35.00
2018-01-21T04:36:32.718Z,35.97
2018-01-21T04:38:58.463Z,35.83
2018-01-21T04:41:24.202Z,33.77
2018-01-21T04:43:49.949Z,32.07
2018-01-21T04:46:15.686Z,34.23
2018-01-21T04:48:41.429Z,42.37
2018-01-21T04:51:07.174Z,46.73
2018-01-21T04:53:32.950Z,39.87
2018-01-21T04:55:58.687Z,35.73
2018-01-21T04:58:24.451Z,34.13
2018-01-21T05:00:50.202Z,35.13
2018-01-21T05:03:15.961Z,40.40
2018-01-21T05:05:41.714Z,43.13
2018-01-21T05:08:07.474Z,39.97
2018-01-21T05:10:33.230Z,35.63
2018-01-21T05:12:58.994Z,36.33
2018-01-21T05:15:24.731Z,36.00
2018-01-21T05:17:50.491Z,35.77
2018-01-21T05:20:16.230Z,37.47
2018-01-21T05:22:41.986Z,42.27
2018-01-21T05:25:07.736Z,40.10
2018-01-21T05:27:33.493Z,44.10
2018-01-21T05:29:59.232Z,42.07
2018-01-21T05:32:24.978Z,39.70
2018-01-21T05:34:50.721Z,34.63
2018-01-21T05:37:16.462Z,34.97
2018-01-21T05:39:42.218Z,34.90
2018-01-21T05:42:07.961Z,34.33
2018-01-21T05:44:33.707Z,32.87
2018-01-21T05:46:59.446Z,31.50
2018-01-21T05:49:25.200Z,34.23
2018-01-21T05:51:50.945Z,39.13
2018-01-21T05:54:16.726Z,39.93
2018-01-21T05:56:42.465Z,39.80
2018-01-21T05:59:08.212Z,34.57
2018-01-21T06:01:33.970Z,33.70
2018-01-21T06:03:59.726Z,34.63
2018-01-21T06:06:25.467Z,32.67
2018-01-21T06:08:51.245Z,37.80
2018-01-21T06:11:16.981Z,46.20
2018-01-21T06:13:42.734Z,49.70
2018-01-21T06:16:08.486Z,55.10
2018-01-21T06:18:34.490Z,58.43
2018-01-21T06:21:00.258Z,63.33
2018-01-21T06:23:26.001Z,86.00
2018-01-21T06:25:51.754Z,83.70
2018-01-21T06:28:17.503Z,115.47
2018-01-21T06:30:43.254Z,53.63
2018-01-21T06:33:09.001Z,53.47
2018-01-21T06:35:34.746Z,47.47
2018-01-21T06:38:00.483Z,104.63
2018-01-21T06:40:26.238Z,111.10
2018-01-21T06:42:51.984Z,112.37
2018-01-21T06:45:17.727Z,50.37
2018-01-21T06:47:43.487Z,67.57
2018-01-21T06:50:09.265Z,59.53
2018-01-21T06:52:35.001Z,65.47
2018-01-21T06:55:00.754Z,73.43
2018-01-21T06:57:26.510Z,54.87
2018-01-21T06:59:52.254Z,45.80
2018-01-21T07:02:18.011Z,64.10
2018-01-21T07:04:43.754Z,54.27
2018-01-21T07:07:09.517Z,102.20
2018-01-21T07:09:35.263Z,126.30
2018-01-21T07:12:01.022Z,49.70
2018-01-21T07:14:26.766Z,56.47
2018-01-21T07:16:52.515Z,57.97
2018-01-21T07:19:18.263Z,47.93
2018-01-21T07:21:44.007Z,49.83
2018-01-21T07:24:09.767Z,51.47
2018-01-21T07:26:35.521Z,48.13
2018-01-21T07:29:01.278Z,49.53
2018-01-21T07:31:27.031Z,49.43
2018-01-21T07:33:52.766Z,44.37
2018-01-21T07:36:18.511Z,42.53
2018-01-21T07:38:44.253Z,40.10
2018-01-21T07:41:10.003Z,36.63
2018-01-21T07:43:35.759Z,40.63
2018-01-21T07:46:01.523Z,47.60
2018-01-21T07:48:27.263Z,46.73
2018-01-21T07:50:53.018Z,35.60
2018-01-21T07:53:18.786Z,32.73
2018-01-21T07:55:44.538Z,33.13
2018-01-21T07:58:10.286Z,32.33
2018-01-21T08:00:36.026Z,31.23
2018-01-21T08:03:01.775Z,29.73
2018-01-21T08:05:27.526Z,31.40
2018-01-21T08:07:53.290Z,33.13
2018-01-21T08:10:19.030Z,34.43
2018-01-21T08:12:44.793Z,33.83
2018-01-21T08:15:10.543Z,33.77
2018-01-21T08:17:42.536Z,35.23
2018-01-21T08:20:08.283Z,33.40
2018-01-21T08:22:34.043Z,32.67
2018-01-21T08:24:59.767Z,31.40
2018-01-21T08:27:25.522Z,29.67
2018-01-21T08:29:51.257Z,29.97
2018-01-21T08:32:16.995Z,30.77
2018-01-21T08:37:53.707Z,68.03
2018-01-21T08:40:25.440Z,53.58
2018-01-21T08:42:51.207Z,74.12
2018-01-21T08:45:16.963Z,69.53
2018-01-21T08:47:42.705Z,36.33
2018-01-21T08:50:08.452Z,32.10
2018-01-21T08:52:34.195Z,30.13
2018-01-21T08:54:59.946Z,34.27
2018-01-21T08:57:25.698Z,58.00
2018-01-21T08:59:51.463Z,55.53
2018-01-21T09:02:17.210Z,47.33
2018-01-21T09:04:42.964Z,71.53
2018-01-21T09:07:09.436Z,37.60
2018-01-21T09:09:36.901Z,39.40
2018-01-21T09:12:02.642Z,62.78
2018-01-21T09:14:28.398Z,44.97
2018-01-21T09:16:54.159Z,34.40
2018-01-21T09:19:19.922Z,32.47
2018-01-21T09:21:45.671Z,31.27
2018-01-21T09:24:11.424Z,31.53
2018-01-21T09:26:37.186Z,29.67
2018-01-21T09:29:02.979Z,29.00
2018-01-21T09:31:28.723Z,30.50
2018-01-21T09:33:54.470Z,46.30
2018-01-21T09:36:20.540Z,43.43
2018-01-21T09:38:46.443Z,34.83
2018-01-21T09:41:12.413Z,37.87
2018-01-21T09:43:39.097Z,32.67
2018-01-21T09:46:05.914Z,31.67
2018-01-21T09:48:32.873Z,31.67
2018-01-21T09:51:00.436Z,49.65
2018-01-21T09:53:27.057Z,34.03
2018-01-21T09:55:54.145Z,33.65
2018-01-21T09:58:19.889Z,33.03
2018-01-21T10:00:45.675Z,35.27
2018-01-21T10:03:11.402Z,30.57
2018-01-21T10:05:37.194Z,36.83
2018-01-21T10:08:02.962Z,33.53
2018-01-21T10:10:28.706Z,34.60
2018-01-21T10:12:54.466Z,36.60
2018-01-21T10:15:20.206Z,31.73
2018-01-21T10:17:45.973Z,29.53
2018-01-21T10:20:11.823Z,26.90
2018-01-21T10:22:38.887Z,25.17
2018-01-21T10:25:04.674Z,27.02
2018-01-21T10:27:30.597Z,27.50
2018-01-21T10:29:56.350Z,38.30
2018-01-21T10:32:22.099Z,32.90
2018-01-21T10:34:47.839Z,30.07
2018-01-21T10:37:13.582Z,33.37
2018-01-21T10:39:39.326Z,40.73
2018-01-21T10:42:05.073Z,34.40
2018-01-21T10:44:30.806Z,31.37
2018-01-21T10:46:56.547Z,29.60
2018-01-21T10:49:22.282Z,24.90
2018-01-21T10:51:55.044Z,32.17
2018-01-21T10:54:20.792Z,33.65
2018-01-21T10:56:46.586Z,34.00
2018-01-21T10:59:12.338Z,31.37
2018-01-21T11:01:38.205Z,40.07
2018-01-21T11:04:04.047Z,29.30
2018-01-21T11:06:29.787Z,30.23
2018-01-21T11:08:55.526Z,34.60
2018-01-21T11:11:21.263Z,28.83
2018-01-21T11:13:47.015Z,30.33
2018-01-21T11:16:12.760Z,32.60
2018-01-21T11:18:38.523Z,37.53
2018-01-21T11:21:04.278Z,29.40
2018-01-21T11:23:30.035Z,33.73
2018-01-21T11:25:55.859Z,29.40
2018-01-21T11:28:21.944Z,33.70
2018-01-21T11:33:20.162Z,37.28
2018-01-21T11:35:45.897Z,32.40
2018-01-21T11:38:11.650Z,36.40
2018-01-21T11:40:37.398Z,37.03
2018-01-21T11:43:03.149Z,38.73
2018-01-21T11:45:28.894Z,41.33
2018-01-21T11:47:54.663Z,57.83
2018-01-21T11:50:20.435Z,35.73
2018-01-21T11:52:46.179Z,38.37
2018-01-21T11:55:11.934Z,45.77
2018-01-21T11:57:37.695Z,33.17
2018-01-21T12:00:03.453Z,35.20
2018-01-21T12:02:29.203Z,32.87
2018-01-21T12:04:54.971Z,33.17
2018-01-21T12:07:20.718Z,34.47
2018-01-21T12:09:46.472Z,48.13
2018-01-21T12:12:12.210Z,37.20
2018-01-21T12:14:37.962Z,32.17
2018-01-21T12:17:03.710Z,33.60
2018-01-21T12:19:29.465Z,32.93
2018-01-21T12:21:55.207Z,34.60
2018-01-21T12:24:20.955Z,32.23
2018-01-21T12:26:46.706Z,29.30
2018-01-21T12:29:12.458Z,30.33
2018-01-21T12:31:38.201Z,28.10
2018-01-21T12:34:04.235Z,30.93
2018-01-21T12:36:30.009Z,28.45
2018-01-21T12:38:55.758Z,25.73
2018-01-21T12:41:21.523Z,25.87
2018-01-21T12:43:47.267Z,28.07
2018-01-21T12:46:13.028Z,27.70
2018-01-21T12:48:38.776Z,29.63
2018-01-21T12:51:04.544Z,30.33
2018-01-21T12:53:30.295Z,36.00
2018-01-21T12:55:56.155Z,30.43
2018-01-21T12:58:21.903Z,31.23
2018-01-21T13:00:47.658Z,25.67
2018-01-21T13:03:13.414Z,24.27
2018-01-21T13:05:39.185Z,22.07
2018-01-21T13:08:04.926Z,23.13
2018-01-21T13:10:30.891Z,29.27
2018-01-21T13:12:56.630Z,31.47
2018-01-21T13:15:22.607Z,28.13
2018-01-21T13:17:48.383Z,27.08
2018-01-21T13:20:14.126Z,25.83
2018-01-21T13:22:39.874Z,25.90
2018-01-21T13:25:05.614Z,24.23
2018-01-21T13:27:31.373Z,31.50
2018-01-21T13:29:57.110Z,24.57
2018-01-21T13:32:22.851Z,24.93
2018-01-21T13:34:48.896Z,26.50
2018-01-21T13:37:14.640Z,28.75
2018-01-21T13:39:40.447Z,27.10
2018-01-21T13:42:06.217Z,27.03
2018-01-21T13:44:36.407Z,27.07
2018-01-21T13:47:02.185Z,26.52
2018-01-21T13:49:28.977Z,27.23
2018-01-21T13:51:54.762Z,26.55
2018-01-21T13:54:20.519Z,25.73
2018-01-21T13:56:46.303Z,25.03
2018-01-21T13:59:12.049Z,34.13
2018-01-21T14:01:37.849Z,31.43
2018-01-21T14:04:03.608Z,28.53
2018-01-21T14:06:29.423Z,27.87
2018-01-21T14:08:55.193Z,26.13
2018-01-21T14:11:20.935Z,29.10
2018-01-21T14:13:46.690Z,29.77
2018-01-21T14:16:12.438Z,27.07
2018-01-21T14:18:38.195Z,26.13
2018-01-21T14:21:03.946Z,25.77
2018-01-21T14:23:29.863Z,24.70
2018-01-21T14:25:55.645Z,25.37
2018-01-21T14:28:21.390Z,26.10
2018-01-21T14:30:47.133Z,25.20
2018-01-21T14:33:12.890Z,27.23
2018-01-21T14:35:38.775Z,25.20
2018-01-21T14:38:04.554Z,26.57
2018-01-21T14:40:30.297Z,26.63
2018-01-21T14:42:56.057Z,24.53
2018-01-21T14:45:21.807Z,24.77
2018-01-21T14:47:47.703Z,28.43
2018-01-21T14:50:13.467Z,26.30
2018-01-21T14:52:39.218Z,27.70
2018-01-21T14:55:05.780Z,26.60
2018-01-21T14:57:32.618Z,27.80
2018-01-21T14:59:59.236Z,27.02
2018-01-21T15:02:26.202Z,24.80
2018-01-21T15:04:52.951Z,23.95
2018-01-21T15:07:19.990Z,26.15
2018-01-21T15:09:45.841Z,25.65
2018-01-21T15:12:11.587Z,30.47
2018-01-21T15:14:37.705Z,23.73
2018-01-21T15:17:03.454Z,26.10
2018-01-21T15:19:29.360Z,24.93
2018-01-21T15:21:55.098Z,24.93
2018-01-21T15:24:21.316Z,24.33
2018-01-21T15:26:48.282Z,31.15
2018-01-21T15:29:15.043Z,28.23
2018-01-21T15:31:40.855Z,26.90
2018-01-21T15:34:06.598Z,27.90
2018-01-21T15:36:32.358Z,27.90
2018-01-21T15:38:58.173Z,28.73
2018-01-21T15:41:23.932Z,29.70
2018-01-21T15:43:49.686Z,28.87
2018-01-21T15:46:15.435Z,27.30
2018-01-21T15:48:41.190Z,30.47
2018-01-21T15:51:06.935Z,29.70
2018-01-21T15:53:32.671Z,29.77
2018-01-21T15:55:58.422Z,30.10
2018-01-21T15:58:24.167Z,31.30
2018-01-21T16:00:49.914Z,31.47
2018-01-21T16:03:15.654Z,44.77
2018-01-21T16:05:41.406Z,35.03
2018-01-21T16:08:07.182Z,34.53
2018-01-21T16:10:32.934Z,35.03
2018-01-21T16:12:58.694Z,32.13
2018-01-21T16:15:24.445Z,28.63
2018-01-21T16:17:50.196Z,31.83
2018-01-21T16:20:15.943Z,29.13
2018-01-21T16:22:41.701Z,26.73
2018-01-21T16:25:07.536Z,28.93
2018-01-21T16:27:33.281Z,31.40
2018-01-21T16:29:59.024Z,29.90
2018-01-21T16:32:24.790Z,31.50
2018-01-21T16:34:50.527Z,32.63
2018-01-21T16:37:28.715Z,31.73
2018-01-21T16:39:54.475Z,36.70
2018-01-21T16:42:20.279Z,36.80
2018-01-21T16:44:46.004Z,32.80
2018-01-21T16:47:11.758Z,32.80
2018-01-21T16:49:37.566Z,34.10
2018-01-21T16:52:03.314Z,33.77
2018-01-21T16:54:29.113Z,35.47
2018-01-21T16:56:54.828Z,33.77
2018-01-21T16:59:20.568Z,40.10
2018-01-21T17:01:46.303Z,35.63
2018-01-21T17:04:12.055Z,42.00
2018-01-21T17:06:37.801Z,38.37
2018-01-21T17:09:03.566Z,38.57
2018-01-21T17:11:29.304Z,57.10
2018-01-21T17:13:55.091Z,39.63
2018-01-21T17:16:20.830Z,35.00
2018-01-21T17:18:46.586Z,38.77
2018-01-21T17:21:12.331Z,38.43
2018-01-21T17:23:38.094Z,39.43
2018-01-21T17:26:03.842Z,38.13
2018-01-21T17:28:29.620Z,38.37
2018-01-21T17:30:55.374Z,35.80
2018-01-21T17:33:21.114Z,29.03
2018-01-21T17:35:46.867Z,33.10
2018-01-21T17:38:12.608Z,33.77
2018-01-21T17:40:38.366Z,31.50
2018-01-21T17:43:04.106Z,30.13
2018-01-21T17:45:29.867Z,29.50
2018-01-21T17:47:55.615Z,30.17
2018-01-21T17:50:21.372Z,29.90
2018-01-21T17:52:47.119Z,30.70
2018-01-21T17:55:12.891Z,33.67
2018-01-21T17:57:38.647Z,31.53
2018-01-21T18:00:04.414Z,37.17
2018-01-21T18:02:30.170Z,31.47
2018-01-21T18:04:55.906Z,36.67
2018-01-21T18:07:21.666Z,30.90
2018-01-21T18:09:47.442Z,33.77
2018-01-21T18:12:13.178Z,33.83
2018-01-21T18:14:38.927Z,32.73
2018-01-21T18:17:04.686Z,34.03
2018-01-21T18:19:30.421Z,33.87
2018-01-21T18:21:56.191Z,34.43
2018-01-21T18:24:21.935Z,34.47
2018-01-21T18:26:47.695Z,34.43
2018-01-21T18:29:13.452Z,35.17
2018-01-21T18:31:39.212Z,36.67
2018-01-21T18:34:04.950Z,36.47
2018-01-21T18:36:30.776Z,39.77
2018-01-21T18:38:56.478Z,38.07
2018-01-21T18:41:22.239Z,37.90
2018-01-21T18:43:47.977Z,37.27
2018-01-21T18:46:13.716Z,37.07
2018-01-21T18:48:39.464Z,33.93
2018-01-21T18:51:05.265Z,32.73
2018-01-21T18:53:31.006Z,30.10
2018-01-21T18:55:56.775Z,26.97
2018-01-21T18:58:22.533Z,31.17
2018-01-21T19:00:48.274Z,28.73
2018-01-21T19:03:14.031Z,30.23
2018-01-21T19:05:39.775Z,28.40
2018-01-21T19:08:05.531Z,29.03
2018-01-21T19:10:31.286Z,30.17
2018-01-21T19:12:57.047Z,31.43
2018-01-21T19:15:22.828Z,31.17
2018-01-21T19:17:48.558Z,32.03
2018-01-21T19:20:14.304Z,32.43
2018-01-21T19:22:40.072Z,32.53
2018-01-21T19:25:05.813Z,34.00
2018-01-21T19:27:31.574Z,32.60
2018-01-21T19:29:57.322Z,34.23
2018-01-21T19:32:23.075Z,28.83
2018-01-21T19:34:48.825Z,28.83
2018-01-21T19:37:14.578Z,32.83
2018-01-21T19:43:00.535Z,29.42
2018-01-21T19:45:26.299Z,30.92
2018-01-21T19:47:52.075Z,28.90
2018-01-21T19:50:17.829Z,28.97
2018-01-21T19:52:43.595Z,31.43
2018-01-21T19:55:09.346Z,30.33
2018-01-21T19:57:35.099Z,32.37
2018-01-21T20:00:00.847Z,32.17
2018-01-21T20:02:26.602Z,34.83
2018-01-21T20:04:52.338Z,34.63
2018-01-21T20:07:18.087Z,31.07
2018-01-21T20:09:43.838Z,31.13
2018-01-21T20:12:09.575Z,32.10
2018-01-21T20:14:35.338Z,34.37
2018-01-21T20:17:01.078Z,33.37
2018-01-21T20:19:26.857Z,32.73
2018-01-21T20:21:52.568Z,31.17
2018-01-21T20:24:18.402Z,34.00
2018-01-21T20:26:44.170Z,34.60
2018-01-21T20:29:09.931Z,35.30
2018-01-21T20:31:35.694Z,33.67
2018-01-21T20:34:01.454Z,34.10
2018-01-21T20:36:27.192Z,32.27
2018-01-21T20:38:52.951Z,32.77
2018-01-21T20:41:18.707Z,31.07
2018-01-21T20:43:44.470Z,31.80
2018-01-21T20:46:10.217Z,32.87
2018-01-21T20:48:35.971Z,32.37
2018-01-21T20:51:07.993Z,32.37
2018-01-21T20:53:39.832Z,33.05
2018-01-21T20:56:05.591Z,32.85
2018-01-21T20:58:31.330Z,31.93
2018-01-21T21:00:57.078Z,32.40
2018-01-21T21:03:22.832Z,32.60
2018-01-21T21:05:48.587Z,33.73
2018-01-21T21:08:14.342Z,31.97
2018-01-21T21:10:40.109Z,31.70
2018-01-21T21:13:05.872Z,31.77
2018-01-21T21:15:31.626Z,34.20
2018-01-21T21:17:57.363Z,33.13
2018-01-21T21:20:23.122Z,31.20
2018-01-21T21:22:48.863Z,31.27
2018-01-21T21:25:14.618Z,31.00
2018-01-21T21:27:40.357Z,30.43
2018-01-21T21:30:06.118Z,33.63
2018-01-21T21:32:31.862Z,30.13
2018-01-21T21:34:57.602Z,31.00
2018-01-21T21:37:23.368Z,31.13
2018-01-21T21:39:49.115Z,29.03
2018-01-21T21:42:14.889Z,29.90
2018-01-21T21:44:40.638Z,30.40
2018-01-21T21:47:06.399Z,30.87
2018-01-21T21:49:32.154Z,30.60
2018-01-21T21:52:05.031Z,30.77
2018-01-21T21:54:30.822Z,29.83
2018-01-21T21:56:57.882Z,30.10
2018-01-21T21:59:23.622Z,29.67
2018-01-21T22:01:49.390Z,32.20
2018-01-21T22:04:15.202Z,29.57
2018-01-21T22:06:40.990Z,30.37
2018-01-21T22:09:06.748Z,29.57
2018-01-21T22:11:32.503Z,30.47
2018-01-21T22:13:58.259Z,29.67
2018-01-21T22:16:24.037Z,30.20
2018-01-21T22:18:49.800Z,29.17
2018-01-21T22:21:15.551Z,28.30
2018-01-21T22:23:41.333Z,29.43
2018-01-21T22:26:07.070Z,29.00
2018-01-21T22:28:32.823Z,30.40
2018-01-21T22:30:58.566Z,32.10
2018-01-21T22:33:24.322Z,32.47
2018-01-21T22:35:50.073Z,33.40
2018-01-21T22:38:15.826Z,31.77
2018-01-21T22:40:41.590Z,31.83
2018-01-21T22:43:07.760Z,31.10
2018-01-21T22:45:33.551Z,31.12
2018-01-21T22:47:59.320Z,31.37
2018-01-21T22:50:25.065Z,31.10
2018-01-21T22:52:50.853Z,30.53
2018-01-21T22:55:16.635Z,31.00
2018-01-21T22:57:42.374Z,31.17
2018-01-21T23:00:08.126Z,30.97
2018-01-21T23:02:33.953Z,31.83
2018-01-21T23:04:59.722Z,32.93
2018-01-21T23:07:25.458Z,31.73
2018-01-21T23:09:51.211Z,30.73
2018-01-21T23:12:16.991Z,30.27
2018-01-21T23:14:42.739Z,32.07
2018-01-21T23:17:08.495Z,31.37
2018-01-21T23:19:34.271Z,31.80
2018-01-21T23:22:00.379Z,31.87
2018-01-21T23:24:26.135Z,30.80
2018-01-21T23:26:51.892Z,30.07
2018-01-21T23:29:17.647Z,31.27
2018-01-21T23:31:43.549Z,31.50
2018-01-21T23:34:09.326Z,30.00
2018-01-21T23:36:35.075Z,30.00
2018-01-21T23:39:00.819Z,29.60
2018-01-21T23:41:26.571Z,30.87
2018-01-21T23:43:52.330Z,31.20
2018-01-21T23:46:18.080Z,29.30
2018-01-21T23:48:43.845Z,29.77
2018-01-21T23:51:09.595Z,31.60
2018-01-21T23:53:36.062Z,30.97
2018-01-21T23:56:01.863Z,29.60
2018-01-21T23:58:27.610Z,31.87
